Dorchester, WI (54425)

9:11 AM CST on November 24, 2014 (GMT -0600)
Taylor County | Change Station
CLOSE
Current Station
Airport
Location: Medford,
Elevation: 1470 ft
Nearby Weather Stations
Active Advisory: Winter Weather Advisory Active Notice: Public Information Statement

Elev 1470 ft 45.10 °N, 90.30 °W | Updated 16 minutes ago

Snow
Snow
32 °F
Feels Like 23 °F
N
12
Wind Variable Wind from NW

Today
High -- | Low -- °F
--% Chance of Precip.
Yesterday
High -- | Low -- °F
Precip. -- in
7:10 AM 4:24 PM
Waxing Crescent, 5% visible
Pressure 29.13 in
Visibility 1.5 miles
Clouds Overcast 800 ft
Windchill 23 °F
Dew Point 32 °F
Humidity 99%
Rainfall 0.24 in
Snow Depth Not available.
UV 0 out of 12
Pollen .10 out of 12
Air Quality Not available.
Flu Activity Not available.
METAR KMDZ 241455Z AUTO 32010KT 1 1/2SM -SN OVC008 00/00 A2913 RMK AO2 60001 T00011001

More Conditions Fewer Conditions

Pressure 29.13 in
Visibility 1.5 miles
Clouds Overcast 800 ft
Windchill 23 °F
Dew Point 32 °F
Humidity 99%
Rainfall 0.24 in
Snow Depth Not available.
UV 0 out of 12
Pollen .10 out of 12
Air Quality Not available.
Flu Activity Not available.
METAR KMDZ 241455Z AUTO 32010KT 1 1/2SM -SN OVC008 00/00 A2913 RMK AO2 60001 T00011001

More Conditions Fewer Conditions

10-Day Weather Forecast

Almanac

Astronomy

Nov. 24, 2014 Rise Set
Actual Time
Civil Twilight
Nautical Twilight
Astronomical Twilight
Moon
Length of Visible Light
Length of Day
Tomorrow will be .
, % of the Moon is Illuminated

Today's Extremes

State Highs State Lows

Community

WunderPhotos

Upload Photos

1,773,360 photos uploaded!

WunderBlogs® & News

Nearby

Air Quality

  Air Quality AQ Index Pollutant
Not available.

Snow Depth

Station Depth Elevation

Earthquake Activity

City Distance Mag. Time & Date
Minimum magnitude displayed is 2.5.

Coastal Water Temperatures

Place Temperature

Nearby Weather Stations